Airfield :
LOGIN :

Register | Disclaimer

   EN    FR    IT 

 










Legend :    VFR   Marginal VFR   IFR   Intensive IFR   Very Intensive IFR
Visi :
Ceiling :
>= 8 km
>= 3000ft
5 to 8 km
1000 to 3000 ft
1500m to 5 km
500 to 1000 ft
800 to 1500m
200 to 500 ft
< 800m
< 200 ft
Symbols :   Thunderstorms  Fog  Heavy snow  Heavy precipitations  Wind > 20 kt
SIGMETs :     Misc.  Thunderstorms  Icing  Turbulence  Mountain Waves  Volcanic Ashes






- Airport Elevation : 284 ft


EGUW - RAF Wattisham

CURRENT METAR :
  • 041250Z 23016KT 9999 SCT024 BKN027 17/11 Q1015 BECMG SCT025 RMK WHT BECMG BLU

EXPIRED METARs :
  • 041150Z 24017KT 9999 FEW024 BKN026 17/12 Q1016 NOSIG RMK BLU BLU
  • 041050Z 24014KT 9999 BKN025 17/11 Q1016 NOSIG RMK BLU BLU

TAF TAF EGUW
Valid from the 04 at 12:00 until the 04 at 21:00 UTC


041041Z 0412/0421 24014KT 9999 SCT035
PROB30
TEMPO 0412/0415 23015G25KT
PROB30
TEMPO 0416/0421 SCT020



MET'MAP, your aeronautical weather chart ! - Copyright ORBIFLY December 2007 - Disclaimer

ORBIFLY MET'MAP TEAM :

Programming & Development : Alexandra Zaïnal
Original concept : Baudouin d'Aumeries
Technical & hardware support : Manuel Goepfert
Assistance : Marc-Olivier Méhu




SOURCES & CREDITS :

   NOAA